createdAt,value
2023-04-16T00:00:03.869Z,95638.97
2023-04-16T00:01:12.610Z,95641.59
2023-04-16T00:02:14.995Z,95636.38
2023-04-16T00:03:17.048Z,95640.28
2023-04-16T00:04:18.912Z,95642.19
2023-04-16T00:05:20.565Z,95643.00
2023-04-16T00:06:23.004Z,95636.59
2023-04-16T00:07:24.755Z,95640.56
2023-04-16T00:08:26.546Z,95633.06
2023-04-16T00:09:28.129Z,95635.06
2023-04-16T00:10:29.713Z,95641.91
2023-04-16T00:11:31.341Z,95637.38
2023-04-16T00:12:33.133Z,95637.78
2023-04-16T00:13:35.553Z,95638.09
2023-04-16T00:14:37.172Z,95646.75
2023-04-16T00:15:38.789Z,95640.50
2023-04-16T00:16:40.466Z,95640.22
2023-04-16T00:17:42.217Z,95642.22
2023-04-16T00:18:43.863Z,95637.97
2023-04-16T00:19:45.587Z,95636.41
2023-04-16T00:20:48.388Z,95640.22
2023-04-16T00:21:49.967Z,95643.63
2023-04-16T00:22:51.618Z,95646.13
2023-04-16T00:23:53.337Z,95649.13
2023-04-16T00:24:54.959Z,95645.91
2023-04-16T00:25:59.802Z,95651.44
2023-04-16T00:27:01.704Z,95644.72
2023-04-16T00:28:05.031Z,95640.38
2023-04-16T00:29:07.255Z,95647.44
2023-04-16T00:30:09.476Z,95653.16
2023-04-16T00:31:11.138Z,95650.44
2023-04-16T00:32:12.781Z,95653.66
2023-04-16T00:33:14.453Z,95655.56
2023-04-16T00:34:16.072Z,95648.53
2023-04-16T00:35:17.806Z,95642.81
2023-04-16T00:36:19.364Z,95643.63
2023-04-16T00:37:21.080Z,95640.69
2023-04-16T00:38:22.796Z,95653.25
2023-04-16T00:39:24.493Z,95648.44
2023-04-16T00:40:29.274Z,95656.38
2023-04-16T00:41:30.895Z,95658.78
2023-04-16T00:42:32.570Z,95643.63
2023-04-16T00:43:34.801Z,95654.16
2023-04-16T00:44:36.444Z,95648.22
2023-04-16T00:45:38.505Z,95651.97
2023-04-16T00:46:41.846Z,95643.13
2023-04-16T00:47:43.865Z,95648.16
2023-04-16T00:48:45.839Z,95648.63
2023-04-16T00:49:47.604Z,95656.47
2023-04-16T00:50:49.241Z,95654.56
2023-04-16T00:51:51.114Z,95652.44
2023-04-16T00:52:52.954Z,95655.56
2023-04-16T00:53:54.631Z,95651.03
2023-04-16T00:54:56.480Z,95650.63
2023-04-16T00:55:58.822Z,95650.94
2023-04-16T00:57:01.639Z,95655.25
2023-04-16T00:58:03.575Z,95652.34
2023-04-16T00:59:05.500Z,95649.34
2023-04-16T01:00:08.509Z,95650.44
2023-04-16T01:01:10.092Z,95655.34
2023-04-16T01:02:12.618Z,95647.22
2023-04-16T01:03:14.453Z,95652.44
2023-04-16T01:04:16.321Z,95651.63
2023-04-16T01:05:19.613Z,95648.03
2023-04-16T01:06:21.598Z,95646.41
2023-04-16T01:07:23.875Z,95650.63
2023-04-16T01:08:25.681Z,95649.22
2023-04-16T01:09:27.341Z,95655.06
2023-04-16T01:10:28.868Z,95654.56
2023-04-16T01:11:30.421Z,95655.34
2023-04-16T01:12:32.507Z,95654.75
2023-04-16T01:13:35.073Z,95652.44
2023-04-16T01:14:37.312Z,95659.38
2023-04-16T01:15:38.973Z,95652.53
2023-04-16T01:16:40.532Z,95655.56
2023-04-16T01:17:42.036Z,95655.75
2023-04-16T01:18:43.612Z,95653.44
2023-04-16T01:19:45.265Z,95649.13
2023-04-16T01:20:48.014Z,95653.44
2023-04-16T01:21:49.603Z,95656.16
2023-04-16T01:22:51.094Z,95649.63
2023-04-16T01:23:52.623Z,95656.66
2023-04-16T01:24:54.165Z,95656.47
2023-04-16T01:25:55.806Z,95656.66
2023-04-16T01:27:00.073Z,95654.75
2023-04-16T01:28:01.575Z,95659.09
2023-04-16T01:29:03.162Z,95649.03
2023-04-16T01:30:05.218Z,95666.50
2023-04-16T01:31:16.949Z,95661.78
2023-04-16T01:32:33.339Z,95665.09
2023-04-16T01:33:35.024Z,95659.88
2023-04-16T01:34:36.692Z,95663.50
2023-04-16T01:35:39.037Z,95660.09
2023-04-16T01:36:40.539Z,95656.47
2023-04-16T01:37:45.077Z,95655.16
2023-04-16T01:38:47.053Z,95667.44
2023-04-16T01:39:48.609Z,95669.50
2023-04-16T01:40:50.264Z,95664.72
2023-04-16T01:41:51.843Z,95662.88
2023-04-16T01:42:53.455Z,95655.84
2023-04-16T01:43:55.000Z,95662.47
2023-04-16T01:44:58.893Z,95661.28
2023-04-16T01:46:20.348Z,95663.50
2023-04-16T01:47:22.744Z,95664.91
2023-04-16T01:48:24.312Z,95673.34
2023-04-16T01:49:28.197Z,95661.78
2023-04-16T01:50:29.976Z,95666.69
2023-04-16T01:51:32.235Z,95662.09
2023-04-16T01:52:33.791Z,95671.53
2023-04-16T01:53:37.104Z,95673.22
2023-04-16T01:54:39.003Z,95667.31
2023-04-16T01:55:40.578Z,95668.81
2023-04-16T01:56:42.096Z,95667.31
2023-04-16T01:57:43.934Z,95666.81
2023-04-16T01:58:47.781Z,95675.75
2023-04-16T01:59:51.222Z,95668.22
2023-04-16T02:00:52.963Z,95668.22
2023-04-16T02:01:54.616Z,95666.69
2023-04-16T02:02:56.357Z,95664.91
2023-04-16T02:04:01.700Z,95660.28
2023-04-16T02:05:03.621Z,95661.91
2023-04-16T02:06:05.260Z,95666.31
2023-04-16T02:07:07.433Z,95668.22
2023-04-16T02:08:09.208Z,95658.97
2023-04-16T02:09:10.892Z,95675.03
2023-04-16T02:10:13.670Z,95670.13
2023-04-16T02:11:15.898Z,95667.69
2023-04-16T02:12:17.904Z,95668.50
2023-04-16T02:13:19.579Z,95669.59
2023-04-16T02:14:25.456Z,95658.47
2023-04-16T02:15:27.070Z,95655.66
2023-04-16T02:16:29.340Z,95669.34
2023-04-16T02:17:37.173Z,95660.69
2023-04-16T02:18:43.157Z,95669.34
2023-04-16T02:19:45.708Z,95667.91
2023-04-16T02:20:47.925Z,95672.03
2023-04-16T02:21:51.543Z,95678.97
2023-04-16T02:22:53.127Z,95676.25
2023-04-16T02:23:57.449Z,95668.13
2023-04-16T02:25:02.475Z,95671.31
2023-04-16T02:26:04.143Z,95667.31
2023-04-16T02:27:05.777Z,95670.13
2023-04-16T02:28:09.168Z,95668.13
2023-04-16T02:29:14.789Z,95670.50
2023-04-16T02:30:19.817Z,95675.94
2023-04-16T02:31:22.722Z,95666.09
2023-04-16T02:32:24.399Z,95671.66
2023-04-16T02:33:26.671Z,95674.63
2023-04-16T02:34:39.865Z,95673.31
2023-04-16T02:35:41.704Z,95670.22
2023-04-16T02:36:43.345Z,95677.38
2023-04-16T02:37:44.846Z,95667.13
2023-04-16T02:38:46.816Z,95678.16
2023-04-16T02:39:49.773Z,95669.13
2023-04-16T02:40:51.315Z,95672.63
2023-04-16T02:41:52.842Z,95676.44
2023-04-16T02:42:55.089Z,95674.75
2023-04-16T02:43:57.209Z,95681.88
2023-04-16T02:44:58.720Z,95675.94
2023-04-16T02:46:00.373Z,95677.16
2023-04-16T02:47:02.441Z,95678.28
2023-04-16T02:48:04.214Z,95677.66
2023-04-16T02:49:05.853Z,95665.81
2023-04-16T02:50:08.009Z,95664.50
2023-04-16T02:51:11.732Z,95670.81
2023-04-16T02:52:15.092Z,95672.03
2023-04-16T02:53:17.235Z,95663.50
2023-04-16T02:54:18.786Z,95666.91
2023-04-16T02:55:20.386Z,95668.03
2023-04-16T02:56:21.893Z,95674.47
2023-04-16T02:57:23.432Z,95681.78
2023-04-16T02:58:26.262Z,95671.25
2023-04-16T02:59:27.769Z,95668.72
2023-04-16T03:00:29.320Z,95671.75
2023-04-16T03:01:31.014Z,95668.41
2023-04-16T03:02:32.792Z,95665.09
2023-04-16T03:03:34.462Z,95660.78
2023-04-16T03:04:36.138Z,95667.44
2023-04-16T03:05:40.184Z,95665.91
2023-04-16T03:06:41.898Z,95664.28
2023-04-16T03:07:43.506Z,95671.53
2023-04-16T03:08:45.355Z,95664.00
2023-04-16T03:09:47.149Z,95666.00
2023-04-16T03:10:48.695Z,95666.41
2023-04-16T03:11:50.246Z,95672.94
2023-04-16T03:12:51.815Z,95663.00
2023-04-16T03:13:53.833Z,95672.53
2023-04-16T03:14:55.360Z,95673.34
2023-04-16T03:15:56.868Z,95680.56
2023-04-16T03:16:58.804Z,95670.44
2023-04-16T03:18:00.777Z,95673.03
2023-04-16T03:19:05.075Z,95681.56
2023-04-16T03:20:07.415Z,95672.63
2023-04-16T03:21:08.922Z,95677.34
2023-04-16T03:22:10.422Z,95673.72
2023-04-16T03:23:11.912Z,95689.31
2023-04-16T03:24:13.576Z,95671.53
2023-04-16T03:25:16.447Z,95679.38
2023-04-16T03:26:17.961Z,95677.47
2023-04-16T03:27:19.734Z,95681.28
2023-04-16T03:28:21.443Z,95680.97
2023-04-16T03:29:23.099Z,95681.28
2023-04-16T03:30:24.666Z,95690.63
2023-04-16T03:31:26.228Z,95682.97
2023-04-16T03:32:29.596Z,95686.59
2023-04-16T03:33:31.206Z,95685.69
2023-04-16T03:34:32.825Z,95690.63
2023-04-16T03:35:34.665Z,95684.50
2023-04-16T03:36:37.020Z,95693.22
2023-04-16T03:37:38.892Z,95691.81
2023-04-16T03:38:40.553Z,95691.53
2023-04-16T03:39:42.457Z,95705.56
2023-04-16T03:40:45.730Z,95688.22
2023-04-16T03:41:49.684Z,95686.59
2023-04-16T03:42:51.342Z,95688.13
2023-04-16T03:43:52.828Z,95694.25
2023-04-16T03:44:54.447Z,95696.53
2023-04-16T03:45:57.171Z,95695.81
2023-04-16T03:46:59.384Z,95698.53
2023-04-16T03:48:01.214Z,95696.25
2023-04-16T03:49:02.846Z,95691.31
2023-04-16T03:50:04.719Z,95697.25
2023-04-16T03:51:06.241Z,95694.66
2023-04-16T03:52:08.743Z,95697.06
2023-04-16T03:53:10.391Z,95702.38
2023-04-16T03:54:12.344Z,95692.53
2023-04-16T03:55:14.033Z,95697.66
2023-04-16T03:56:16.138Z,95699.56
2023-04-16T03:57:17.768Z,95706.28
2023-04-16T03:58:20.798Z,95702.56
2023-04-16T03:59:22.718Z,95698.97
2023-04-16T04:00:24.296Z,95697.88
2023-04-16T04:01:34.551Z,95703.06
2023-04-16T04:02:36.558Z,95703.59
2023-04-16T04:03:38.961Z,95702.78
2023-04-16T04:04:40.948Z,95708.09
2023-04-16T04:05:43.803Z,95714.31
2023-04-16T04:06:48.094Z,95708.59
2023-04-16T04:07:50.096Z,95713.41
2023-04-16T04:08:51.622Z,95713.53
2023-04-16T04:09:53.235Z,95713.41
2023-04-16T04:10:55.456Z,95712.41
2023-04-16T04:11:58.811Z,95708.91
2023-04-16T04:13:01.324Z,95707.81
2023-04-16T04:14:02.734Z,95717.44
2023-04-16T04:15:04.654Z,95718.31
2023-04-16T04:16:06.421Z,95716.25
2023-04-16T04:17:08.902Z,95719.44
2023-04-16T04:18:10.662Z,95721.25
2023-04-16T04:19:12.299Z,95715.94
2023-04-16T04:20:14.042Z,95714.81
2023-04-16T04:21:18.988Z,95708.50
2023-04-16T04:22:20.583Z,95718.53
2023-04-16T04:23:22.121Z,95716.03
2023-04-16T04:24:24.399Z,95714.72
2023-04-16T04:25:25.944Z,95715.53
2023-04-16T04:26:27.753Z,95720.16
2023-04-16T04:27:29.304Z,95715.81
2023-04-16T04:28:31.718Z,95721.66
2023-04-16T04:29:35.179Z,95722.56
2023-04-16T04:30:36.785Z,95722.56
2023-04-16T04:31:39.541Z,95720.75
2023-04-16T04:32:41.333Z,95721.25
2023-04-16T04:33:44.330Z,95717.63
2023-04-16T04:34:47.237Z,95720.16
2023-04-16T04:35:48.814Z,95718.22
2023-04-16T04:36:50.604Z,95710.72
2023-04-16T04:37:52.114Z,95724.06
2023-04-16T04:38:55.128Z,95723.19
2023-04-16T04:39:57.216Z,95717.31
2023-04-16T04:40:59.482Z,95719.34
2023-04-16T04:42:03.616Z,95717.13
2023-04-16T04:43:05.336Z,95713.31
2023-04-16T04:44:07.843Z,95724.06
2023-04-16T04:45:10.313Z,95721.13
2023-04-16T04:46:11.984Z,95721.88
2023-04-16T04:47:15.324Z,95722.38
2023-04-16T04:48:17.247Z,95724.47
2023-04-16T04:49:19.068Z,95729.50
2023-04-16T04:50:21.639Z,95730.88
2023-04-16T04:51:23.017Z,95727.19
2023-04-16T04:52:24.601Z,95730.41
2023-04-16T04:53:26.233Z,95733.41
2023-04-16T04:54:28.899Z,95732.00
2023-04-16T04:55:30.500Z,95730.59
2023-04-16T04:56:33.236Z,95729.97
2023-04-16T04:57:34.854Z,95733.81
2023-04-16T04:58:37.218Z,95740.53
2023-04-16T04:59:38.746Z,95738.75
2023-04-16T05:00:40.374Z,95742.44
2023-04-16T05:01:42.000Z,95740.16
2023-04-16T05:02:43.724Z,95737.13
2023-04-16T05:03:45.391Z,95740.63
2023-04-16T05:04:47.020Z,95741.75
2023-04-16T05:05:48.569Z,95737.53
2023-04-16T05:06:50.045Z,95747.88
2023-04-16T05:07:51.615Z,95739.03
2023-04-16T05:08:53.126Z,95738.63
2023-04-16T05:09:54.648Z,95738.53
2023-04-16T05:10:56.162Z,95739.94
2023-04-16T05:11:57.744Z,95744.06
2023-04-16T05:12:59.362Z,95747.28
2023-04-16T05:14:00.960Z,95743.97
2023-04-16T05:15:02.498Z,95746.34
2023-04-16T05:16:04.223Z,95745.16
2023-04-16T05:17:06.102Z,95740.94
2023-04-16T05:18:07.697Z,95746.06
2023-04-16T05:19:09.452Z,95744.75
2023-04-16T05:20:11.242Z,95751.88
2023-04-16T05:21:12.864Z,95754.09
2023-04-16T05:22:14.411Z,95753.91
2023-04-16T05:23:15.962Z,95756.72
2023-04-16T05:24:17.594Z,95750.78
2023-04-16T05:25:19.178Z,95753.78
2023-04-16T05:26:20.811Z,95761.25
2023-04-16T05:27:22.363Z,95753.50
2023-04-16T05:28:23.964Z,95753.28
2023-04-16T05:29:25.890Z,95752.47
2023-04-16T05:30:27.403Z,95751.50
2023-04-16T05:31:29.022Z,95753.59
2023-04-16T05:32:30.574Z,95758.84
2023-04-16T05:33:32.158Z,95755.81
2023-04-16T05:34:33.736Z,95756.31
2023-04-16T05:35:35.328Z,95758.72
2023-04-16T05:36:36.930Z,95759.53
2023-04-16T05:37:38.479Z,95762.03
2023-04-16T05:38:40.231Z,95754.00
2023-04-16T05:39:41.746Z,95767.75
2023-04-16T05:40:43.287Z,95762.44
2023-04-16T05:41:44.854Z,95757.78
2023-04-16T05:42:46.372Z,95753.53
2023-04-16T05:43:47.912Z,95757.56
2023-04-16T05:44:51.152Z,95760.09
2023-04-16T05:45:52.716Z,95762.13
2023-04-16T05:46:54.484Z,95764.91
2023-04-16T05:47:56.060Z,95763.31
2023-04-16T05:48:57.729Z,95765.13
2023-04-16T05:49:59.271Z,95770.44
2023-04-16T05:51:02.144Z,95766.09
2023-04-16T05:52:05.219Z,95766.81
2023-04-16T05:53:08.253Z,95765.72
2023-04-16T05:54:09.816Z,95769.91
2023-04-16T05:55:11.378Z,95761.91
2023-04-16T05:56:12.918Z,95769.91
2023-04-16T05:57:14.577Z,95771.53
2023-04-16T05:58:16.181Z,95772.84
2023-04-16T05:59:17.725Z,95777.84
2023-04-16T06:00:19.289Z,95768.81
2023-04-16T06:01:21.403Z,95777.47
2023-04-16T06:02:23.204Z,95774.38
2023-04-16T06:03:24.945Z,95772.75
2023-04-16T06:04:26.562Z,95774.38
2023-04-16T06:05:28.620Z,95773.66
2023-04-16T06:06:30.214Z,95772.25
2023-04-16T06:07:31.676Z,95777.69
2023-04-16T06:08:33.224Z,95776.00
2023-04-16T06:09:34.756Z,95771.38
2023-04-16T06:10:36.324Z,95776.75
2023-04-16T06:11:37.884Z,95775.13
2023-04-16T06:12:39.401Z,95780.88
2023-04-16T06:13:42.885Z,95775.84
2023-04-16T06:14:44.423Z,95772.75
2023-04-16T06:15:45.955Z,95778.78
2023-04-16T06:16:47.561Z,95773.53
2023-04-16T06:17:49.997Z,95777.34
2023-04-16T06:18:51.416Z,95782.19
2023-04-16T06:19:53.092Z,95778.97
2023-04-16T06:20:54.876Z,95776.66
2023-04-16T06:21:59.419Z,95784.50
2023-04-16T06:23:00.970Z,95783.84
2023-04-16T06:24:02.545Z,95782.00
2023-04-16T06:25:04.414Z,95783.03
2023-04-16T06:26:06.229Z,95780.31
2023-04-16T06:27:07.752Z,95780.09
2023-04-16T06:28:09.354Z,95783.41
2023-04-16T06:29:11.763Z,95783.25
2023-04-16T06:30:14.235Z,95780.91
2023-04-16T06:31:15.839Z,95784.50
2023-04-16T06:32:17.540Z,95789.75
2023-04-16T06:33:19.227Z,95788.84
2023-04-16T06:34:20.842Z,95786.72
2023-04-16T06:35:22.476Z,95788.94
2023-04-16T06:36:24.004Z,95783.50
2023-04-16T06:37:25.527Z,95785.31
2023-04-16T06:38:27.003Z,95790.28
2023-04-16T06:39:28.506Z,95790.47
2023-04-16T06:40:30.102Z,95787.47
2023-04-16T06:41:31.702Z,95792.31
2023-04-16T06:42:33.265Z,95798.44
2023-04-16T06:43:34.860Z,95795.63
2023-04-16T06:44:36.500Z,95789.69
2023-04-16T06:45:38.099Z,95800.53
2023-04-16T06:46:39.938Z,95800.44
2023-04-16T06:47:41.571Z,95792.69
2023-04-16T06:48:43.121Z,95794.59
2023-04-16T06:49:44.629Z,95795.91
2023-04-16T06:50:46.166Z,95801.44
2023-04-16T06:51:47.745Z,95797.91
2023-04-16T06:52:49.279Z,95796.31
2023-04-16T06:53:51.143Z,95787.88
2023-04-16T06:54:52.756Z,95788.59
2023-04-16T06:55:54.321Z,95789.47
2023-04-16T06:56:55.962Z,95787.47
2023-04-16T06:57:57.471Z,95786.38
2023-04-16T06:59:00.895Z,95785.44
2023-04-16T07:00:03.387Z,95794.41
2023-04-16T07:01:05.648Z,95787.56
2023-04-16T07:02:09.525Z,95786.97
2023-04-16T07:03:11.290Z,95788.97
2023-04-16T07:04:13.050Z,95799.53
2023-04-16T07:05:14.650Z,95792.56
2023-04-16T07:06:16.191Z,95798.22
2023-04-16T07:07:18.011Z,95801.66
2023-04-16T07:08:19.510Z,95793.81
2023-04-16T07:09:21.114Z,95798.50
2023-04-16T07:10:22.671Z,95798.50
2023-04-16T07:11:27.577Z,95797.19
2023-04-16T07:12:29.119Z,95796.22
2023-04-16T07:13:30.658Z,95797.81
2023-04-16T07:14:32.295Z,95800.53
2023-04-16T07:15:33.824Z,95792.56
2023-04-16T07:16:37.620Z,95791.47
2023-04-16T07:17:39.307Z,95790.50
2023-04-16T07:18:40.951Z,95796.81
2023-04-16T07:19:42.550Z,95796.59
2023-04-16T07:20:44.080Z,95803.56
2023-04-16T07:21:46.121Z,95798.81
2023-04-16T07:22:47.758Z,95798.81
2023-04-16T07:23:49.271Z,95805.25
2023-04-16T07:24:50.869Z,95795.41
2023-04-16T07:25:52.578Z,95801.53
2023-04-16T07:26:54.106Z,95795.41
2023-04-16T07:27:55.602Z,95799.13
2023-04-16T07:28:57.160Z,95802.34
2023-04-16T07:29:58.765Z,95807.16
2023-04-16T07:31:00.595Z,95796.91
2023-04-16T07:32:02.243Z,95801.44
2023-04-16T07:33:04.162Z,95798.34
2023-04-16T07:34:05.802Z,95806.47
2023-04-16T07:35:07.585Z,95800.13
2023-04-16T07:36:09.129Z,95804.84
2023-04-16T07:37:10.812Z,95805.06
2023-04-16T07:38:12.472Z,95806.16
2023-04-16T07:39:13.956Z,95811.28
2023-04-16T07:40:15.809Z,95803.75
2023-04-16T07:41:17.355Z,95811.47
2023-04-16T07:42:18.973Z,95804.53
2023-04-16T07:43:20.725Z,95808.56
2023-04-16T07:44:22.403Z,95807.94
2023-04-16T07:45:24.006Z,95814.00
2023-04-16T07:46:28.343Z,95804.13
2023-04-16T07:47:34.884Z,95805.66
2023-04-16T07:48:36.432Z,95809.34
2023-04-16T07:49:38.073Z,95805.91
2023-04-16T07:50:39.676Z,95808.75
2023-04-16T07:51:41.272Z,95803.00
2023-04-16T07:52:43.670Z,95809.81
2023-04-16T07:53:45.167Z,95806.28
2023-04-16T07:54:47.072Z,95810.59
2023-04-16T07:55:49.587Z,95807.53
2023-04-16T07:56:51.070Z,95816.97
2023-04-16T07:57:52.762Z,95810.72
2023-04-16T07:58:54.401Z,95810.81
2023-04-16T07:59:56.079Z,95812.63
2023-04-16T08:00:58.349Z,95804.88
2023-04-16T08:02:00.102Z,95816.72
2023-04-16T08:03:02.090Z,95814.88
2023-04-16T08:04:03.945Z,95822.31
2023-04-16T08:05:06.179Z,95814.38
2023-04-16T08:06:07.754Z,95815.88
2023-04-16T08:07:09.514Z,95810.22
2023-04-16T08:08:11.112Z,95813.56
2023-04-16T08:09:12.736Z,95810.03
2023-04-16T08:10:14.326Z,95817.75
2023-04-16T08:11:15.872Z,95822.34
2023-04-16T08:12:17.796Z,95818.91
2023-04-16T08:13:19.322Z,95824.91
2023-04-16T08:14:20.856Z,95822.44
2023-04-16T08:15:22.425Z,95826.38
2023-04-16T08:16:24.117Z,95825.97
2023-04-16T08:17:25.865Z,95832.69
2023-04-16T08:18:27.553Z,95828.22
2023-04-16T08:19:29.104Z,95829.88
2023-04-16T08:20:31.406Z,95832.78
2023-04-16T08:21:33.673Z,95828.28
2023-04-16T08:22:35.639Z,95829.75
2023-04-16T08:23:37.181Z,95833.44
2023-04-16T08:24:38.876Z,95830.03
2023-04-16T08:25:40.559Z,95832.56
2023-04-16T08:26:42.129Z,95839.16
2023-04-16T08:27:43.708Z,95835.31
2023-04-16T08:28:45.454Z,95832.41
2023-04-16T08:29:48.151Z,95842.94
2023-04-16T08:30:49.684Z,95836.16
2023-04-16T08:31:51.410Z,95842.22
2023-04-16T08:32:53.251Z,95844.94
2023-04-16T08:33:54.886Z,95849.25
2023-04-16T08:34:57.177Z,95851.38
2023-04-16T08:35:58.761Z,95837.56
2023-04-16T08:37:00.459Z,95847.59
2023-04-16T08:38:04.708Z,95851.50
2023-04-16T08:39:06.280Z,95844.81
2023-04-16T08:40:08.409Z,95842.84
2023-04-16T08:41:12.894Z,95847.72
2023-04-16T08:42:23.850Z,95844.88
2023-04-16T08:43:26.039Z,95852.22
2023-04-16T08:44:30.350Z,95844.31
2023-04-16T08:45:34.990Z,95843.72
2023-04-16T08:46:37.989Z,95851.69
2023-04-16T08:47:40.099Z,95849.00
2023-04-16T08:48:43.428Z,95852.09
2023-04-16T08:49:46.222Z,95850.97
2023-04-16T08:50:49.523Z,95847.78
2023-04-16T08:51:55.348Z,95856.25
2023-04-16T08:53:00.531Z,95845.94
2023-04-16T08:54:09.441Z,95852.28
2023-04-16T08:55:14.404Z,95851.13
2023-04-16T08:56:17.569Z,95856.06
2023-04-16T08:57:20.488Z,95846.44
2023-04-16T08:58:22.808Z,95852.22
2023-04-16T08:59:25.864Z,95858.84
2023-04-16T09:00:28.510Z,95858.66
2023-04-16T09:01:30.308Z,95857.91
2023-04-16T09:02:32.053Z,95863.47
2023-04-16T09:03:36.298Z,95859.72
2023-04-16T09:04:38.600Z,95856.09
2023-04-16T09:05:40.423Z,95861.59
2023-04-16T09:06:42.574Z,95855.88
2023-04-16T09:07:48.411Z,95861.72
2023-04-16T09:08:49.984Z,95860.44
2023-04-16T09:09:52.195Z,95862.50
2023-04-16T09:10:55.559Z,95858.19
2023-04-16T09:11:57.170Z,95857.16
2023-04-16T09:12:58.821Z,95865.81
2023-04-16T09:14:00.893Z,95863.22
2023-04-16T09:15:03.417Z,95866.25
2023-04-16T09:16:06.195Z,95855.16
2023-04-16T09:17:09.084Z,95855.41
2023-04-16T09:18:12.095Z,95864.25
2023-04-16T09:19:14.871Z,95862.81
2023-04-16T09:20:19.887Z,95868.50
2023-04-16T09:21:23.921Z,95869.00
2023-04-16T09:22:25.786Z,95864.69
2023-04-16T09:23:27.328Z,95860.53
2023-04-16T09:24:29.102Z,95860.97
2023-04-16T09:25:37.279Z,95858.44
2023-04-16T09:26:39.001Z,95862.44
2023-04-16T09:27:40.742Z,95867.09
2023-04-16T09:28:45.285Z,95864.69
2023-04-16T09:29:46.845Z,95871.41
2023-04-16T09:30:48.421Z,95863.09
2023-04-16T09:32:07.052Z,95866.72
2023-04-16T09:33:22.237Z,95869.88
2023-04-16T09:34:24.127Z,95864.44
2023-04-16T09:35:25.791Z,95862.53
2023-04-16T09:36:28.129Z,95860.59
2023-04-16T09:37:30.856Z,95867.97
2023-04-16T09:38:52.573Z,95863.53
2023-04-16T09:39:59.033Z,95860.44
2023-04-16T09:41:10.577Z,95861.91
2023-04-16T09:42:12.357Z,95870.53
2023-04-16T09:43:15.781Z,95863.53
2023-04-16T09:44:17.406Z,95870.25
2023-04-16T09:45:19.023Z,95863.19
2023-04-16T09:46:20.715Z,95866.28
2023-04-16T09:47:23.676Z,95866.75
2023-04-16T09:48:30.019Z,95862.59
2023-04-16T09:49:34.630Z,95863.41
2023-04-16T09:50:36.248Z,95869.13
2023-04-16T09:51:38.733Z,95871.75
2023-04-16T09:52:40.298Z,95873.81
2023-04-16T09:53:42.016Z,95866.31
2023-04-16T09:54:47.663Z,95860.84
2023-04-16T09:55:49.307Z,95867.44
2023-04-16T09:56:50.929Z,95870.00
2023-04-16T09:58:00.058Z,95869.97
2023-04-16T09:59:01.753Z,95877.03
2023-04-16T10:00:09.059Z,95869.19
2023-04-16T10:01:12.554Z,95865.81
2023-04-16T10:02:15.637Z,95871.59
2023-04-16T10:03:18.216Z,95866.44
2023-04-16T10:04:20.488Z,95871.91
2023-04-16T10:05:22.175Z,95867.91
2023-04-16T10:06:26.791Z,95869.84
2023-04-16T10:07:30.283Z,95873.50
2023-04-16T10:08:31.936Z,95870.13
2023-04-16T10:09:38.352Z,95870.94
2023-04-16T10:10:40.482Z,95875.28
2023-04-16T10:11:42.357Z,95882.97
2023-04-16T10:12:43.923Z,95877.53
2023-04-16T10:13:46.351Z,95874.91
2023-04-16T10:14:49.970Z,95877.34
2023-04-16T10:15:52.119Z,95881.00
2023-04-16T10:16:54.630Z,95873.28
2023-04-16T10:17:56.106Z,95880.22
2023-04-16T10:18:58.687Z,95878.28
2023-04-16T10:20:01.492Z,95875.38
2023-04-16T10:21:03.409Z,95881.38
2023-04-16T10:22:05.695Z,95885.06
2023-04-16T10:23:07.365Z,95879.47
2023-04-16T10:24:09.624Z,95880.38
2023-04-16T10:25:11.566Z,95885.25
2023-04-16T10:26:13.626Z,95883.16
2023-04-16T10:27:16.611Z,95882.19
2023-04-16T10:28:18.898Z,95883.16
2023-04-16T10:29:21.598Z,95876.13
2023-04-16T10:30:23.348Z,95886.22
2023-04-16T10:31:25.573Z,95884.94
2023-04-16T10:32:28.687Z,95888.28
2023-04-16T10:33:32.767Z,95888.94
2023-04-16T10:34:35.175Z,95888.31
2023-04-16T10:35:40.409Z,95886.59
2023-04-16T10:36:42.069Z,95888.84
2023-04-16T10:37:45.075Z,95890.28
2023-04-16T10:38:48.571Z,95886.28
2023-04-16T10:39:52.548Z,95886.28
2023-04-16T10:41:02.989Z,95889.00
2023-04-16T10:42:12.135Z,95893.47
2023-04-16T10:43:19.232Z,95888.69
2023-04-16T10:44:20.884Z,95896.06
2023-04-16T10:45:32.813Z,95895.38
2023-04-16T10:46:38.847Z,95889.94
2023-04-16T10:47:40.706Z,95893.47
2023-04-16T10:48:49.845Z,95898.09
2023-04-16T10:49:52.430Z,95888.97
2023-04-16T10:50:57.818Z,95895.56
2023-04-16T10:52:03.686Z,95896.06
2023-04-16T10:53:27.993Z,95893.97
2023-04-16T10:54:30.868Z,95895.25
2023-04-16T10:55:33.850Z,95890.28
2023-04-16T10:56:36.501Z,95893.34
2023-04-16T10:57:38.201Z,95897.03
2023-04-16T10:58:40.296Z,95894.16
2023-04-16T10:59:43.266Z,95900.09
2023-04-16T11:00:51.261Z,95890.13
2023-04-16T11:01:54.889Z,95895.91
2023-04-16T11:02:56.740Z,95893.50
2023-04-16T11:04:01.927Z,95901.22
2023-04-16T11:05:04.083Z,95892.22
2023-04-16T11:06:17.434Z,95887.22
2023-04-16T11:07:20.690Z,95887.22
2023-04-16T11:08:23.051Z,95888.03
2023-04-16T11:09:47.654Z,95893.97
2023-04-16T11:10:49.411Z,95891.09
2023-04-16T11:11:51.066Z,95894.16
2023-04-16T11:12:53.561Z,95899.75
2023-04-16T11:13:56.305Z,95895.75
2023-04-16T11:15:14.251Z,95898.94
2023-04-16T11:16:16.992Z,95889.50
2023-04-16T11:17:19.737Z,95895.75
2023-04-16T11:18:21.433Z,95897.69
2023-04-16T11:19:23.070Z,95898.78
2023-04-16T11:20:26.549Z,95901.34
2023-04-16T11:21:28.642Z,95897.16
2023-04-16T11:22:30.362Z,95897.16
2023-04-16T11:23:46.312Z,95892.38
2023-04-16T11:24:48.067Z,95898.16
2023-04-16T11:25:55.857Z,95901.03
2023-04-16T11:26:57.707Z,95896.22
2023-04-16T11:27:59.475Z,95897.13
2023-04-16T11:29:01.333Z,95905.84
2023-04-16T11:30:05.420Z,95898.63
2023-04-16T11:31:12.300Z,95898.75
2023-04-16T11:32:22.031Z,95902.50
2023-04-16T11:33:25.341Z,95905.84
2023-04-16T11:34:27.043Z,95900.41
2023-04-16T11:35:28.725Z,95902.63
2023-04-16T11:36:43.379Z,95903.44
2023-04-16T11:37:45.178Z,95901.19
2023-04-16T11:38:47.419Z,95911.13
2023-04-16T11:39:52.838Z,95912.72
2023-04-16T11:40:55.134Z,95906.00
2023-04-16T11:41:56.832Z,95901.63
2023-04-16T11:43:17.470Z,95909.47
2023-04-16T11:44:28.177Z,95908.47
2023-04-16T11:45:29.837Z,95908.25
2023-04-16T11:46:40.830Z,95909.66
2023-04-16T11:47:55.154Z,95909.50
2023-04-16T11:48:56.940Z,95905.94
2023-04-16T11:49:59.002Z,95910.13
2023-04-16T11:51:00.816Z,95909.56
2023-04-16T11:52:02.408Z,95909.22
2023-04-16T11:53:06.367Z,95909.78
2023-04-16T11:54:11.681Z,95912.19
2023-04-16T11:55:13.779Z,95911.53
2023-04-16T11:56:15.924Z,95912.50
2023-04-16T11:57:32.876Z,95911.84
2023-04-16T11:58:34.510Z,95911.94
2023-04-16T11:59:37.043Z,95912.53
2023-04-16T12:00:38.628Z,95917.38
2023-04-16T12:01:45.433Z,95911.00
2023-04-16T12:02:51.866Z,95919.50
2023-04-16T12:04:02.344Z,95910.78
2023-04-16T12:05:30.343Z,95915.34
2023-04-16T12:06:32.835Z,95916.78
2023-04-16T12:07:44.571Z,95914.69
2023-04-16T12:08:46.148Z,95912.13
2023-04-16T12:09:47.756Z,95921.66
2023-04-16T12:10:56.062Z,95913.13
2023-04-16T12:11:57.926Z,95913.34
2023-04-16T12:13:19.801Z,95915.44
2023-04-16T12:14:21.630Z,95911.16
2023-04-16T12:15:23.338Z,95920.09
2023-04-16T12:16:26.234Z,95912.09
2023-04-16T12:17:27.931Z,95918.38